Time;durP1;ratioP1;P1;durP2;ratioP2;P2;SDS_P1;SDS_P2;PMS_P1;PMS_P2;Temp;Humidity;BMP_temperature;BMP_pressure;BME280_temperature;BME280_humidity;BME280_pressure;Samples;Min_cycle;Max_cycle;Signal;HPM_P1;HPM_P2
2023/03/29 00:00:37;;;;;;;567.28;130.02;;;;;;;-143.29;100.00;62188.47;4900837;29;20488;-94
2023/03/29 00:03:03;;;;;;;569.17;134.95;;;;;;;-143.29;100.00;62188.47;4900913;29;20088;-95
2023/03/29 00:05:32;;;;;;;569.10;131.43;;;;;;;-143.29;100.00;62188.47;4899959;29;20467;-94
2023/03/29 00:08:02;;;;;;;569.15;130.55;;;;;;;-143.29;100.00;62188.47;4900170;29;20028;-94
2023/03/29 00:10:31;;;;;;;574.25;131.90;;;;;;;-143.29;100.00;62188.47;4899164;29;20033;-96
2023/03/29 00:12:57;;;;;;;570.13;131.18;;;;;;;-143.29;100.00;62188.47;4900079;29;20118;-94
2023/03/29 00:15:22;;;;;;;572.47;132.73;;;;;;;-143.29;100.00;62188.47;4898789;29;20051;-95
2023/03/29 00:17:48;;;;;;;572.08;131.02;;;;;;;-143.29;100.00;62188.47;4899362;29;20468;-94
2023/03/29 00:20:13;;;;;;;575.78;132.55;;;;;;;-143.29;100.00;62188.47;4898595;29;20480;-95
2023/03/29 00:22:45;;;;;;;563.55;130.82;;;;;;;-143.29;100.00;62188.47;4899244;29;20032;-94
2023/03/29 00:25:11;;;;;;;575.47;128.23;;;;;;;-143.29;100.00;62188.47;4899182;29;20025;-95
2023/03/29 00:27:38;;;;;;;560.80;128.98;;;;;;;-143.29;100.00;62188.47;4899935;29;20119;-95
2023/03/29 00:30:05;;;;;;;566.15;129.93;;;;;;;-143.29;100.00;62188.47;4900660;29;20035;-93
2023/03/29 00:32:31;;;;;;;567.47;129.63;;;;;;;-143.29;100.00;62188.47;4900561;29;20059;-95
2023/03/29 00:34:57;;;;;;;568.30;130.80;;;;;;;-143.29;100.00;62188.47;4900129;29;20395;-94
2023/03/29 00:37:28;;;;;;;565.45;130.23;;;;;;;-143.29;100.00;62188.47;4900413;29;20021;-94
2023/03/29 00:39:54;;;;;;;570.95;131.27;;;;;;;-143.29;100.00;62188.47;4916545;29;20024;-95
2023/03/29 00:42:20;;;;;;;569.47;129.82;;;;;;;-143.29;100.00;62188.47;4916604;29;20486;-93
2023/03/29 00:44:58;;;;;;;566.38;130.30;;;;;;;-143.29;100.00;62188.47;4900238;29;20116;-94
2023/03/29 00:47:31;;;;;;;573.28;131.75;;;;;;;-143.29;100.00;62188.47;4899634;29;20032;-94
2023/03/29 00:50:02;;;;;;;570.33;131.10;;;;;;;-143.29;100.00;62188.47;4900139;29;20578;-94
2023/03/29 00:52:30;;;;;;;568.58;130.90;;;;;;;-143.29;100.00;62188.47;4900127;29;20380;-93
2023/03/29 00:55:00;;;;;;;573.03;128.00;;;;;;;-143.29;100.00;62188.47;4899952;29;20072;-94
2023/03/29 00:57:29;;;;;;;565.42;130.90;;;;;;;-143.29;100.00;62188.47;4899842;29;20060;-94
2023/03/29 00:59:57;;;;;;;565.45;130.75;;;;;;;-143.29;100.00;62188.47;4899761;29;20024;-94
2023/03/29 01:02:26;;;;;;;567.78;128.52;;;;;;;-143.29;100.00;62188.47;4900161;29;20463;-95
2023/03/29 01:05:04;;;;;;;576.13;130.48;;;;;;;-143.29;100.00;62188.47;4900427;29;20033;-94
2023/03/29 01:07:39;;;;;;;566.42;126.22;;;;;;;-143.29;100.00;62188.47;4899831;29;20040;-95
2023/03/29 01:10:29;;;;;;;566.00;128.15;;;;;;;-143.29;100.00;62188.47;4899500;29;20115;-96
2023/03/29 01:13:00;;;;;;;570.08;131.88;;;;;;;-143.29;100.00;62188.47;4899609;29;20111;-95
2023/03/29 01:15:27;;;;;;;565.50;131.63;;;;;;;-143.29;100.00;62188.47;4900095;29;20025;-94
2023/03/29 01:17:54;;;;;;;572.60;129.80;;;;;;;-143.29;100.00;62188.47;4899767;29;20272;-94
2023/03/29 01:20:22;;;;;;;567.05;128.65;;;;;;;-143.29;100.00;62188.47;4899080;29;20103;-95
2023/03/29 01:23:02;;;;;;;567.72;130.32;;;;;;;-143.29;100.00;62188.47;4898526;29;20025;-94
2023/03/29 01:26:08;;;;;;;563.03;128.80;;;;;;;-143.29;100.00;62188.47;4897916;29;20032;-95
2023/03/29 01:28:48;;;;;;;561.63;128.45;;;;;;;-143.29;100.00;62188.47;4916695;29;20411;-94
2023/03/29 01:31:23;;;;;;;560.13;125.47;;;;;;;-143.29;100.00;62188.47;4899160;29;20037;-95
2023/03/29 01:33:54;;;;;;;564.13;126.78;;;;;;;-143.29;100.00;62188.47;4915094;29;20024;-95
2023/03/29 01:36:28;;;;;;;558.45;127.47;;;;;;;-143.29;100.00;62188.47;4914928;29;20399;-96
2023/03/29 01:38:59;;;;;;;560.22;129.52;;;;;;;-143.29;100.00;62188.47;4898594;29;20043;-96
2023/03/29 01:41:44;;;;;;;563.60;127.30;;;;;;;-143.29;100.00;62188.47;4898698;29;20059;-96
2023/03/29 01:44:17;;;;;;;556.45;126.70;;;;;;;-143.29;100.00;62188.47;4898177;29;20036;-95
2023/03/29 01:46:46;;;;;;;562.80;124.18;;;;;;;-143.29;100.00;62188.47;4898160;29;20028;-96
2023/03/29 01:49:21;;;;;;;562.70;126.85;;;;;;;-143.29;100.00;62188.47;4898442;29;20381;-96
2023/03/29 01:52:00;;;;;;;560.97;128.15;;;;;;;-143.29;100.00;62188.47;4898351;29;20035;-96
2023/03/29 01:54:32;;;;;;;561.75;127.18;;;;;;;-143.29;100.00;62188.47;4898833;29;20092;-96
2023/03/29 01:56:58;;;;;;;557.28;125.30;;;;;;;-143.29;100.00;62188.47;4898367;29;20060;-96
2023/03/29 01:59:30;;;;;;;564.17;127.32;;;;;;;-143.29;100.00;62188.47;4898276;29;20076;-96
2023/03/29 02:02:03;;;;;;;565.83;128.15;;;;;;;-143.29;100.00;62188.47;4898012;29;20068;-96
2023/03/29 02:04:37;;;;;;;566.03;128.95;;;;;;;-143.29;100.00;62188.47;4898094;29;20033;-95
2023/03/29 02:07:07;;;;;;;561.65;127.57;;;;;;;-143.29;100.00;62188.47;4899112;29;20061;-96
2023/03/29 02:09:36;;;;;;;559.28;128.15;;;;;;;-143.29;100.00;62188.47;4898346;29;20115;-95
2023/03/29 02:12:03;;;;;;;558.97;125.90;;;;;;;-143.29;100.00;62188.47;4897792;29;20068;-96
2023/03/29 02:14:29;;;;;;;565.10;128.88;;;;;;;-143.29;100.00;62188.47;4898073;29;20024;-96
2023/03/29 02:16:54;;;;;;;564.40;128.15;;;;;;;-143.29;100.00;62188.47;4898062;29;20080;-96
2023/03/29 02:19:23;;;;;;;563.00;129.10;;;;;;;-143.29;100.00;62188.47;4897597;29;20428;-95
2023/03/29 02:22:00;;;;;;;563.28;128.38;;;;;;;-143.29;100.00;62188.47;4897736;29;20119;-96
2023/03/29 02:24:31;;;;;;;557.47;124.55;;;;;;;-143.29;100.00;62188.47;4897810;29;20032;-96
2023/03/29 02:26:57;;;;;;;559.75;126.53;;;;;;;-143.29;100.00;62188.47;4897932;29;20040;-96
2023/03/29 02:29:25;;;;;;;558.72;126.35;;;;;;;-143.29;100.00;62188.47;4898051;29;20024;-95
2023/03/29 02:32:32;;;;;;;557.95;127.32;;;;;;;-143.29;100.00;62188.47;4897255;29;20031;-96
2023/03/29 02:35:12;;;;;;;562.10;127.03;;;;;;;-143.29;100.00;62188.47;4896623;29;20041;-95
2023/03/29 02:37:41;;;;;;;555.72;125.93;;;;;;;-143.29;100.00;62188.47;4899837;29;20035;-96
2023/03/29 02:40:11;;;;;;;552.55;124.68;;;;;;;-143.29;100.00;62188.47;4901091;29;20025;-96
2023/03/29 02:42:38;;;;;;;563.47;127.60;;;;;;;-143.29;100.00;62188.47;4901168;29;20115;-96
2023/03/29 02:45:05;;;;;;;559.92;128.23;;;;;;;-143.29;100.00;62188.47;4900897;29;20115;-96
2023/03/29 02:47:40;;;;;;;557.30;126.60;;;;;;;-143.29;100.00;62188.47;4901585;29;20025;-96
2023/03/29 02:50:07;;;;;;;556.88;124.35;;;;;;;-143.29;100.00;62188.47;4901027;29;20115;-95
2023/03/29 02:52:40;;;;;;;556.35;124.93;;;;;;;-143.29;100.00;62188.47;4901459;29;20032;-96
2023/03/29 02:55:14;;;;;;;564.17;130.65;;;;;;;-143.29;100.00;62188.47;4901428;29;20028;-96
2023/03/29 02:57:42;;;;;;;555.30;126.78;;;;;;;-143.29;100.00;62188.47;4900923;29;20020;-96
2023/03/29 03:00:09;;;;;;;559.03;129.35;;;;;;;-143.29;100.00;62188.47;4901966;29;20124;-96
2023/03/29 03:02:36;;;;;;;559.47;127.93;;;;;;;-143.29;100.00;62188.47;4901954;29;20510;-95
2023/03/29 03:05:02;;;;;;;562.85;128.40;;;;;;;-143.29;100.00;62188.47;4901803;29;20035;-96
2023/03/29 03:07:28;;;;;;;560.63;127.63;;;;;;;-143.29;100.00;62188.47;4902815;29;20033;-96
2023/03/29 03:09:54;;;;;;;555.35;126.80;;;;;;;-143.29;100.00;62188.47;4902028;29;20112;-95
2023/03/29 03:12:19;;;;;;;555.75;125.20;;;;;;;-143.29;100.00;62188.47;4902989;29;20392;-96
2023/03/29 03:14:45;;;;;;;561.00;125.78;;;;;;;-143.29;100.00;62188.47;4918961;29;20546;-96
2023/03/29 03:17:10;;;;;;;557.08;126.43;;;;;;;-143.29;100.00;62188.47;4901801;29;20036;-96
2023/03/29 03:19:37;;;;;;;561.80;128.27;;;;;;;-143.29;100.00;62188.47;4901305;29;20039;-96
2023/03/29 03:22:04;;;;;;;401.80;117.55;;;;;;;-143.29;100.00;62188.47;4902422;29;20056;-96
2023/03/29 03:24:31;;;;;;;409.55;117.95;;;;;;;-143.29;100.00;62188.47;4901875;29;20035;-95
2023/03/29 03:26:56;;;;;;;399.38;113.57;;;;;;;-143.29;100.00;62188.47;4900779;29;20035;-94
2023/03/29 03:29:23;;;;;;;447.52;122.10;;;;;;;-143.29;100.00;62188.47;4900836;29;20391;-95
2023/03/29 03:31:49;;;;;;;457.77;122.70;;;;;;;-143.29;100.00;62188.47;4901296;29;20389;-96
2023/03/29 03:34:14;;;;;;;441.67;119.00;;;;;;;-143.29;100.00;62188.47;4901364;29;20028;-96
2023/03/29 03:36:39;;;;;;;449.40;122.18;;;;;;;-143.29;100.00;62188.47;4901163;29;20134;-96
2023/03/29 03:39:06;;;;;;;408.63;116.68;;;;;;;-143.29;100.00;62188.47;4900642;29;20112;-96
2023/03/29 03:41:32;;;;;;;416.25;118.03;;;;;;;-143.29;100.00;62188.47;4900965;29;20056;-96
2023/03/29 03:43:59;;;;;;;411.63;117.03;;;;;;;-143.29;100.00;62188.47;4901323;29;20024;-96
2023/03/29 03:46:25;;;;;;;419.27;118.57;;;;;;;-143.29;100.00;62188.47;4900471;29;20021;-95
2023/03/29 03:48:50;;;;;;;402.63;113.07;;;;;;;-143.29;100.00;62188.47;4899579;29;20039;-96
2023/03/29 03:51:15;;;;;;;384.75;110.70;;;;;;;-143.29;100.00;62188.47;4899872;29;20028;-96
2023/03/29 03:53:41;;;;;;;405.77;116.13;;;;;;;-143.29;100.00;62188.47;4899599;29;20029;-96
2023/03/29 03:56:09;;;;;;;377.52;111.53;;;;;;;-143.29;100.00;62188.47;4899825;29;20036;-96
2023/03/29 03:58:36;;;;;;;372.40;112.82;;;;;;;-143.29;100.00;62188.47;4900389;29;20555;-95
2023/03/29 04:01:02;;;;;;;386.73;111.18;;;;;;;-143.29;100.00;62188.47;4900703;29;20491;-96
2023/03/29 04:03:28;;;;;;;395.95;115.32;;;;;;;-143.29;100.00;62188.47;4900563;29;20028;-95
2023/03/29 04:05:54;;;;;;;379.17;110.57;;;;;;;-143.29;100.00;62188.47;4900309;29;20111;-95
2023/03/29 04:08:21;;;;;;;401.80;111.68;;;;;;;-143.29;100.00;62188.47;4900250;29;20120;-96
2023/03/29 04:10:54;;;;;;;419.90;117.03;;;;;;;-143.29;100.00;62188.47;4901128;29;20024;-96
2023/03/29 04:13:21;;;;;;;414.80;117.07;;;;;;;-143.29;100.00;62188.47;4900763;29;20470;-96
2023/03/29 04:15:48;;;;;;;399.73;113.65;;;;;;;-143.29;100.00;62188.47;4916738;29;20032;-96
2023/03/29 04:18:14;;;;;;;406.23;115.60;;;;;;;-143.29;100.00;62188.47;4900795;29;20032;-95
2023/03/29 04:20:40;;;;;;;403.70;114.22;;;;;;;-143.29;100.00;62188.47;4900631;29;20032;-95
2023/03/29 04:23:05;;;;;;;420.73;118.25;;;;;;;-143.29;100.00;62188.47;4900760;29;20063;-95
2023/03/29 04:25:31;;;;;;;406.02;116.18;;;;;;;-143.29;100.00;62188.47;4916228;29;20024;-95
2023/03/29 04:27:56;;;;;;;432.98;119.70;;;;;;;-143.29;100.00;62188.47;4900494;29;20027;-95
2023/03/29 04:30:22;;;;;;;421.77;118.38;;;;;;;-143.29;100.00;62188.47;4900915;29;20499;-96
2023/03/29 04:32:47;;;;;;;435.50;118.85;;;;;;;-143.29;100.00;62188.47;4900756;29;20028;-96
2023/03/29 04:35:13;;;;;;;462.05;119.75;;;;;;;-143.29;100.00;62188.47;4900214;29;20042;-95
2023/03/29 04:37:41;;;;;;;439.40;124.43;;;;;;;-143.29;100.00;62188.47;4900610;29;20024;-96
2023/03/29 04:40:08;;;;;;;425.58;118.75;;;;;;;-143.29;100.00;62188.47;4900720;29;20021;-96
2023/03/29 04:42:34;;;;;;;439.60;119.80;;;;;;;-143.29;100.00;62188.47;4900370;29;20463;-96
2023/03/29 04:45:00;;;;;;;481.23;127.95;;;;;;;-143.29;100.00;62188.47;4900647;29;20120;-96
2023/03/29 04:47:28;;;;;;;444.25;120.18;;;;;;;-143.29;100.00;62188.47;4900227;29;20056;-96
2023/03/29 04:49:54;;;;;;;439.38;117.50;;;;;;;-143.29;100.00;62188.47;4899981;29;20036;-96
2023/03/29 04:52:19;;;;;;;435.45;117.57;;;;;;;-143.29;100.00;62188.47;4900174;29;20073;-96
2023/03/29 04:54:45;;;;;;;440.38;117.10;;;;;;;-143.29;100.00;62188.47;4915592;29;20043;-96
2023/03/29 04:57:10;;;;;;;436.83;120.30;;;;;;;-143.29;100.00;62188.47;4899636;29;20039;-96
2023/03/29 04:59:36;;;;;;;434.58;119.13;;;;;;;-143.29;100.00;62188.47;4899614;29;20444;-96
2023/03/29 05:02:03;;;;;;;425.02;116.55;;;;;;;-143.29;100.00;62188.47;4899900;29;20043;-96
2023/03/29 05:04:29;;;;;;;429.67;117.20;;;;;;;-143.29;100.00;62188.47;4899960;29;20484;-96
2023/03/29 05:06:56;;;;;;;423.25;115.18;;;;;;;-143.29;100.00;62188.47;4900021;29;20384;-96
2023/03/29 05:09:22;;;;;;;424.20;118.13;;;;;;;-143.29;100.00;62188.47;4899636;29;20492;-96
2023/03/29 05:11:48;;;;;;;429.20;118.80;;;;;;;-143.29;100.00;62188.47;4899810;29;20042;-95
2023/03/29 05:14:14;;;;;;;425.63;116.43;;;;;;;-143.29;100.00;62188.47;4899434;29;20507;-96
2023/03/29 05:16:39;;;;;;;415.55;116.65;;;;;;;-143.29;100.00;62188.47;4900359;29;20021;-96
2023/03/29 05:19:05;;;;;;;387.30;112.35;;;;;;;-143.29;100.00;62188.47;4900692;29;20399;-96
2023/03/29 05:21:32;;;;;;;390.83;112.93;;;;;;;-143.29;100.00;62188.47;4900973;29;20025;-96
2023/03/29 05:23:57;;;;;;;386.20;112.45;;;;;;;-143.29;100.00;62188.47;4900531;29;20025;-96
2023/03/29 05:26:23;;;;;;;384.73;108.88;;;;;;;-143.29;100.00;62188.47;4901404;29;20032;-96
2023/03/29 05:28:49;;;;;;;413.98;114.25;;;;;;;-143.29;100.00;62188.47;4901699;29;20043;-96
2023/03/29 05:31:15;;;;;;;389.25;113.00;;;;;;;-143.29;100.00;62188.47;4900227;29;20032;-96
2023/03/29 05:33:41;;;;;;;421.42;115.97;;;;;;;-143.29;100.00;62188.47;4901738;29;20440;-95
2023/03/29 05:36:09;;;;;;;432.77;119.10;;;;;;;-143.29;100.00;62188.47;4900496;29;20021;-95
2023/03/29 05:38:35;;;;;;;425.13;116.70;;;;;;;-143.29;100.00;62188.47;4915614;29;20033;-96
2023/03/29 05:41:01;;;;;;;419.30;116.13;;;;;;;-143.29;100.00;62188.47;4898319;29;20502;-96
2023/03/29 05:43:27;;;;;;;374.42;109.15;;;;;;;-143.29;100.00;62188.47;4898415;29;20543;-95
2023/03/29 05:45:54;;;;;;;379.60;108.30;;;;;;;-143.29;100.00;62188.47;4915156;29;20067;-95
2023/03/29 05:48:21;;;;;;;388.63;113.57;;;;;;;-143.29;100.00;62188.47;4899336;29;20052;-96
2023/03/29 05:50:52;;;;;;;397.48;112.25;;;;;;;-143.29;100.00;62188.47;4899234;29;20493;-96
2023/03/29 05:53:18;;;;;;;442.13;116.07;;;;;;;-143.29;100.00;62188.47;4915080;29;20044;-94
2023/03/29 05:55:44;;;;;;;424.77;115.38;;;;;;;-143.29;100.00;62188.47;4899533;29;20505;-96
2023/03/29 05:58:11;;;;;;;436.83;117.50;;;;;;;-143.29;100.00;62188.47;4898960;29;20115;-96
2023/03/29 06:00:37;;;;;;;429.90;116.20;;;;;;;-143.29;100.00;62188.47;4898413;29;20366;-95
2023/03/29 06:03:03;;;;;;;438.98;118.57;;;;;;;-143.29;100.00;62188.47;4897476;29;20031;-96
2023/03/29 06:05:29;;;;;;;419.63;114.28;;;;;;;-143.29;100.00;62188.47;4912813;29;20021;-96
2023/03/29 06:07:55;;;;;;;411.75;112.32;;;;;;;-143.29;100.00;62188.47;4897885;29;20080;-96
2023/03/29 06:10:22;;;;;;;395.38;113.35;;;;;;;-143.29;100.00;62188.47;4897146;29;20032;-96
2023/03/29 06:12:48;;;;;;;390.95;113.72;;;;;;;-143.29;100.00;62188.47;4903114;29;20111;-96
2023/03/29 06:15:14;;;;;;;402.15;114.25;;;;;;;-143.29;100.00;62188.47;4903815;29;20024;-96
2023/03/29 06:17:40;;;;;;;400.55;114.63;;;;;;;-143.29;100.00;62188.47;4903522;29;20476;-96
2023/03/29 06:20:09;;;;;;;402.60;112.40;;;;;;;-143.29;100.00;62188.47;4903315;29;20123;-96
2023/03/29 06:22:36;;;;;;;392.48;112.82;;;;;;;-143.29;100.00;62188.47;4903040;29;20024;-95
2023/03/29 06:25:03;;;;;;;379.13;110.30;;;;;;;-143.29;100.00;62188.47;4903466;29;20063;-94
2023/03/29 06:27:29;;;;;;;381.08;111.22;;;;;;;-143.29;100.00;62188.47;4903175;29;20024;-96
2023/03/29 06:29:55;;;;;;;381.25;110.60;;;;;;;-143.29;100.00;62188.47;4903296;29;20030;-96
2023/03/29 06:32:21;;;;;;;387.88;111.55;;;;;;;-143.29;100.00;62188.47;4903637;29;20032;-96
2023/03/29 06:34:46;;;;;;;354.45;108.93;;;;;;;-143.29;100.00;62188.47;4902812;29;20044;-96
2023/03/29 06:37:11;;;;;;;385.33;112.97;;;;;;;-143.29;100.00;62188.47;4902660;29;20021;-95
2023/03/29 06:39:37;;;;;;;397.65;114.22;;;;;;;-143.29;100.00;62188.47;4903095;29;20126;-96
2023/03/29 06:42:04;;;;;;;408.73;115.18;;;;;;;-143.29;100.00;62188.47;4919203;29;20035;-96
2023/03/29 06:44:29;;;;;;;400.05;113.63;;;;;;;-143.29;100.00;62188.47;4902948;29;20072;-95
2023/03/29 06:46:55;;;;;;;386.08;113.20;;;;;;;-143.29;100.00;62188.47;4902999;29;20033;-95
2023/03/29 06:49:20;;;;;;;396.38;115.45;;;;;;;-143.29;100.00;62188.47;4902530;29;20040;-96
2023/03/29 06:51:47;;;;;;;406.10;117.35;;;;;;;-143.29;100.00;62188.47;4902787;29;20028;-96
2023/03/29 06:54:13;;;;;;;398.30;117.53;;;;;;;-143.29;100.00;62188.47;4902568;29;20028;-95
2023/03/29 06:56:38;;;;;;;396.30;116.30;;;;;;;-143.29;100.00;62188.47;4920638;29;20031;-96
2023/03/29 06:59:04;;;;;;;393.90;115.95;;;;;;;-143.29;100.00;62188.47;4905460;29;20025;-95
2023/03/29 07:01:30;;;;;;;389.98;116.28;;;;;;;-143.29;100.00;62188.47;4902902;29;20032;-96
2023/03/29 07:03:56;;;;;;;400.02;116.55;;;;;;;-143.29;100.00;62188.47;4902712;29;20400;-95
2023/03/29 07:06:21;;;;;;;353.33;112.32;;;;;;;-143.29;100.00;62188.47;4902450;29;20294;-96
2023/03/29 07:08:51;;;;;;;395.20;116.57;;;;;;;-143.29;100.00;62188.47;4902324;29;20047;-96
2023/03/29 07:11:17;;;;;;;372.75;114.13;;;;;;;-143.29;100.00;62188.47;4902717;29;20024;-96
2023/03/29 07:13:43;;;;;;;492.27;128.63;;;;;;;-143.29;100.00;62188.47;4918342;29;20028;-96
2023/03/29 07:16:12;;;;;;;482.85;128.80;;;;;;;-143.29;100.00;62188.47;4902579;29;20372;-96
2023/03/29 07:18:40;;;;;;;459.02;127.03;;;;;;;-143.29;100.00;62188.47;4902372;29;20153;-96
2023/03/29 07:21:07;;;;;;;472.73;127.65;;;;;;;-143.29;100.00;62188.47;4902208;29;20025;-95
2023/03/29 07:23:33;;;;;;;476.38;130.73;;;;;;;-143.29;100.00;62188.47;4899881;29;20028;-95
2023/03/29 07:25:58;;;;;;;473.58;127.28;;;;;;;-143.29;100.00;62188.47;4899305;29;20045;-96
2023/03/29 07:28:24;;;;;;;460.17;125.30;;;;;;;-143.29;100.00;62188.47;4899493;29;20092;-96
2023/03/29 07:30:50;;;;;;;500.98;131.88;;;;;;;-143.29;100.00;62188.47;4898933;29;20024;-95
2023/03/29 07:33:15;;;;;;;494.00;131.40;;;;;;;-143.29;100.00;62188.47;4898757;29;20503;-95
2023/03/29 07:35:42;;;;;;;498.58;131.70;;;;;;;-143.29;100.00;62188.47;4898984;29;20033;-96
2023/03/29 07:38:08;;;;;;;456.73;125.10;;;;;;;-143.29;100.00;62188.47;4898973;29;20032;-94
2023/03/29 07:40:34;;;;;;;443.42;119.97;;;;;;;-143.29;100.00;62188.47;4898790;29;20029;-94
2023/03/29 07:43:01;;;;;;;401.10;117.07;;;;;;;-143.29;100.00;62188.47;4898755;29;20067;-96
2023/03/29 07:45:28;;;;;;;402.08;113.65;;;;;;;-143.29;100.00;62188.47;4898511;29;20029;-95
2023/03/29 07:47:56;;;;;;;385.02;113.82;;;;;;;-143.29;100.00;62188.47;4898549;29;20037;-92
2023/03/29 07:50:22;;;;;;;463.52;127.10;;;;;;;-143.29;100.00;62188.47;4913989;29;20021;-94
2023/03/29 07:52:48;;;;;;;396.58;115.45;;;;;;;-143.29;100.00;62188.47;4898729;29;20080;-95
2023/03/29 07:55:13;;;;;;;388.40;117.63;;;;;;;-143.29;100.00;62188.47;4898426;29;20079;-96
2023/03/29 07:57:39;;;;;;;564.20;136.93;;;;;;;-143.29;100.00;62188.47;4898369;29;20096;-94
2023/03/29 08:00:15;;;;;;;577.42;134.57;;;;;;;-143.29;100.00;62188.47;4899916;29;20091;-92
2023/03/29 08:02:42;;;;;;;578.97;135.95;;;;;;;-143.29;100.00;62188.47;4898018;29;20403;-92
2023/03/29 08:05:09;;;;;;;575.83;134.57;;;;;;;-143.29;100.00;62188.47;4898429;29;20028;-92
2023/03/29 08:07:34;;;;;;;578.40;137.13;;;;;;;-143.29;100.00;62188.47;4898185;29;20025;-92
2023/03/29 08:09:59;;;;;;;583.08;136.75;;;;;;;-143.29;100.00;62188.47;4899092;29;20035;-92
2023/03/29 08:12:25;;;;;;;581.58;138.00;;;;;;;-143.29;100.00;62188.47;4897944;29;20503;-92
2023/03/29 08:14:50;;;;;;;565.65;131.98;;;;;;;-143.29;100.00;62188.47;4897872;29;20025;-91
2023/03/29 08:17:16;;;;;;;580.05;136.95;;;;;;;-143.29;100.00;62188.47;4898243;29;20028;-92
2023/03/29 08:19:41;;;;;;;581.97;133.73;;;;;;;-143.29;100.00;62188.47;4913485;29;20395;-92
2023/03/29 08:22:07;;;;;;;578.72;137.18;;;;;;;-143.29;100.00;62188.47;4898878;29;20032;-91
2023/03/29 08:24:32;;;;;;;570.65;133.65;;;;;;;-143.29;100.00;62188.47;4897937;29;20498;-94
2023/03/29 08:26:57;;;;;;;549.72;137.07;;;;;;;-143.29;100.00;62188.47;4898196;29;20036;-95
2023/03/29 08:29:23;;;;;;;547.47;136.70;;;;;;;-143.29;100.00;62188.47;4898984;29;20037;-92
2023/03/29 08:31:49;;;;;;;573.50;131.63;;;;;;;-143.29;100.00;62188.47;4897688;29;20037;-92
2023/03/29 08:34:15;;;;;;;575.80;134.20;;;;;;;-143.29;100.00;62188.47;4897214;29;20039;-92
2023/03/29 08:36:40;;;;;;;569.97;131.82;;;;;;;-143.29;100.00;62188.47;4897584;29;20028;-91
2023/03/29 08:39:06;;;;;;;565.08;130.10;;;;;;;-143.29;100.00;62188.47;4897584;29;20033;-91
2023/03/29 08:41:52;;;;;;;518.47;136.68;;;;;;;-143.29;100.00;62188.47;4913255;29;20029;-92
2023/03/29 08:44:35;;;;;;;560.88;129.10;;;;;;;-143.29;100.00;62188.47;4897527;29;20192;-92
2023/03/29 08:47:11;;;;;;;568.70;132.27;;;;;;;-143.29;100.00;62188.47;4897258;29;20035;-92
2023/03/29 08:49:40;;;;;;;561.80;135.48;;;;;;;-143.29;100.00;62188.47;4897408;29;20032;-91
2023/03/29 08:52:15;;;;;;;459.70;130.70;;;;;;;-143.29;100.00;62188.47;4897424;29;20024;-93
2023/03/29 08:54:47;;;;;;;466.20;131.02;;;;;;;-143.29;100.00;62188.47;4913150;29;20056;-93
2023/03/29 08:57:27;;;;;;;572.42;133.32;;;;;;;-143.29;100.00;62188.47;4913155;29;20143;-93
2023/03/29 08:59:56;;;;;;;266.20;99.60;;;;;;;-143.29;100.00;62188.47;4913162;29;20036;-93
2023/03/29 09:02:25;;;;;;;326.70;106.32;;;;;;;-143.29;100.00;62188.47;4897210;29;20035;-93
2023/03/29 09:04:55;;;;;;;356.98;115.32;;;;;;;-143.29;100.00;62188.47;4897040;29;20028;-93
2023/03/29 09:07:21;;;;;;;420.27;122.03;;;;;;;-143.29;100.00;62188.47;4898087;29;20067;-93
2023/03/29 09:09:47;;;;;;;454.65;126.00;;;;;;;-143.29;100.00;62188.47;4897056;29;20119;-94
2023/03/29 09:12:15;;;;;;;431.90;123.82;;;;;;;-143.29;100.00;62188.47;4898228;29;20032;-93
2023/03/29 09:15:03;;;;;;;487.00;132.35;;;;;;;-143.29;100.00;62188.47;4896966;29;20360;-93
2023/03/29 09:17:43;;;;;;;508.25;136.85;;;;;;;-143.29;100.00;62188.47;4896935;29;20033;-93
2023/03/29 09:20:11;;;;;;;514.60;134.25;;;;;;;-143.29;100.00;62188.47;4897403;29;20039;-93
2023/03/29 09:22:50;;;;;;;503.83;134.38;;;;;;;-143.29;100.00;62188.47;4897121;29;20056;-93
2023/03/29 09:25:23;;;;;;;536.83;139.73;;;;;;;-143.29;100.00;62188.47;4896734;29;20119;-92
2023/03/29 09:28:14;;;;;;;518.58;134.60;;;;;;;-143.29;100.00;62188.47;4896872;29;20036;-93
2023/03/29 09:30:42;;;;;;;537.90;138.10;;;;;;;-143.29;100.00;62188.47;4898846;29;20040;-93
2023/03/29 09:33:29;;;;;;;516.20;137.30;;;;;;;-143.29;100.00;62188.47;4897854;29;20044;-92
2023/03/29 09:36:09;;;;;;;503.90;135.95;;;;;;;-143.29;100.00;62188.47;4896618;29;20033;-92
2023/03/29 09:38:40;;;;;;;482.60;133.30;;;;;;;-143.29;100.00;62188.47;4896643;29;20423;-92
2023/03/29 09:41:31;;;;;;;464.67;131.77;;;;;;;-143.29;100.00;62188.47;4896529;29;20080;-93
2023/03/29 09:44:00;;;;;;;533.97;140.82;;;;;;;-143.29;100.00;62188.47;4896148;29;20029;-92
2023/03/29 09:46:33;;;;;;;497.52;135.82;;;;;;;-143.29;100.00;62188.47;4911615;29;20508;-93
2023/03/29 09:49:00;;;;;;;487.67;133.93;;;;;;;-143.29;100.00;62188.47;4896371;29;20028;-92
2023/03/29 09:51:30;;;;;;;588.65;144.35;;;;;;;-143.29;100.00;62188.47;4896237;29;20028;-93
2023/03/29 09:53:56;;;;;;;486.05;136.10;;;;;;;-143.29;100.00;62188.47;4896210;29;20034;-93
2023/03/29 09:56:22;;;;;;;392.92;121.80;;;;;;;-143.29;100.00;62188.47;4896394;29;20039;-92
2023/03/29 09:58:47;;;;;;;501.52;136.27;;;;;;;-143.29;100.00;62188.47;4896200;29;20028;-92
2023/03/29 10:01:16;;;;;;;458.20;131.93;;;;;;;-143.29;100.00;62188.47;4896306;29;20115;-93
2023/03/29 10:03:47;;;;;;;440.30;130.50;;;;;;;-143.29;100.00;62188.47;4896244;29;20029;-93
2023/03/29 10:06:13;;;;;;;482.00;136.77;;;;;;;-143.29;100.00;62188.47;4896026;29;20029;-93
2023/03/29 10:08:59;;;;;;;561.83;141.48;;;;;;;-143.29;100.00;62188.47;4897278;29;20132;-93
2023/03/29 10:11:33;;;;;;;525.72;140.43;;;;;;;-143.29;100.00;62188.47;4895663;29;20036;-93
2023/03/29 10:14:05;;;;;;;511.63;142.38;;;;;;;-143.29;100.00;62188.47;4911678;29;20037;-93
2023/03/29 10:16:36;;;;;;;;;;;;;;;-143.29;100.00;62188.47;4912270;29;20479;-93
2023/03/29 10:19:25;;;;;;;572.15;139.68;;;;;;;-143.29;100.00;62188.47;4895944;29;19919;-92
2023/03/29 10:21:57;;;;;;;537.53;140.85;;;;;;;-143.29;100.00;62188.47;4895798;29;20093;-93
2023/03/29 10:24:25;;;;;;;568.08;142.55;;;;;;;-143.29;100.00;62188.47;4895869;29;20033;-93
2023/03/29 10:26:55;;;;;;;565.38;139.45;;;;;;;-143.29;100.00;62188.47;4895933;29;20036;-93
2023/03/29 10:29:23;;;;;;;562.22;137.73;;;;;;;-143.29;100.00;62188.47;4895714;29;20039;-92
2023/03/29 10:31:50;;;;;;;586.50;142.73;;;;;;;-143.29;100.00;62188.47;4896017;29;20024;-93
2023/03/29 10:34:16;;;;;;;506.33;137.25;;;;;;;-143.29;100.00;62188.47;4895793;29;20391;-94
2023/03/29 10:36:51;;;;;;;551.88;142.30;;;;;;;-143.29;100.00;62188.47;4895940;29;20020;-93
2023/03/29 10:39:18;;;;;;;572.78;137.90;;;;;;;-143.29;100.00;62188.47;4895945;29;20053;-93
2023/03/29 10:41:44;;;;;;;426.48;129.27;;;;;;;-143.29;100.00;62188.47;4895809;29;20025;-93
2023/03/29 10:44:34;;;;;;;569.15;137.55;;;;;;;-143.29;100.00;62188.47;4895809;29;20039;-92
2023/03/29 10:47:18;;;;;;;421.50;126.28;;;;;;;-143.29;100.00;62188.47;4895742;29;20033;-93